Airfield :
LOGIN :

Register | Disclaimer

   EN    FR    IT 

 










Legend :    VFR   Marginal VFR   IFR   Intensive IFR   Very Intensive IFR
Visi :
Ceiling :
>= 8 km
>= 3000ft
5 to 8 km
1000 to 3000 ft
1500m to 5 km
500 to 1000 ft
800 to 1500m
200 to 500 ft
< 800m
< 200 ft
Symbols :   Thunderstorms  Fog  Heavy snow  Heavy precipitations  Wind > 20 kt
SIGMETs :     Misc.  Thunderstorms  Icing  Turbulence  Mountain Waves  Volcanic Ashes






- Airport Elevation : 220 ft
- IATA code : CWL


EGFF - Cardiff Rhoose

CURRENT METAR :
  • 291850Z AUTO 05006KT 9999 BKN029 03/01 Q1003

EXPIRED METARs :
  • 291820Z AUTO 05007KT 9999 SCT030 03/01 Q1003
  • 291750Z AUTO 05006KT 9999 BKN026 OVC031 04/01 Q1003
  • 291720Z AUTO 05007KT 9999 OVC025 04/01 Q1003
  • 291650Z AUTO 05005KT 9999 BKN025 03/02 Q1003
  • 291620Z AUTO 05007KT 9999 NCD 04/02 Q1003
  • 291550Z AUTO 07008KT 9999 SCT011 04/03 Q1003
  • 291520Z AUTO 08008KT 9999 SCT011 05/03 Q1003
  • 291450Z AUTO 09008KT 9999 FEW010 05/04 Q1003
  • 291420Z AUTO 07007KT 9999 SCT034 05/04 Q1003

TAF TAF EGFF
Valid from the 29 at 18:00 until the 30 at 18:00 UTC


291654Z 2918/3018 06008KT 9999 SCT045
PROB30 3002/3008 6000 BKN012
PROB40
TEMPO 3003/3018 06015G25KT
PROB30
TEMPO 3010/3018 7000 SHRA BKN014
ATIS : +44 1446 729 319



MET'MAP, your aeronautical weather chart ! - Copyright ORBIFLY December 2007 - Disclaimer

ORBIFLY MET'MAP TEAM :

Programming & Development : Alexandra Zaïnal
Original concept : Baudouin d'Aumeries
Technical & hardware support : Manuel Goepfert
Assistance : Marc-Olivier Méhu




SOURCES & CREDITS :

   NOAA